Time;durP1;ratioP1;P1;durP2;ratioP2;P2;SDS_P1;SDS_P2;PMS_P1;PMS_P2;Temp;Humidity;BMP_temperature;BMP_pressure;BME280_temperature;BME280_humidity;BME280_pressure;Samples;Min_cycle;Max_cycle;Signal;HPM_P1;HPM_P2
2022/01/13 00:01:22;;;;;;;35.80;17.33;;;5.70;99.90;;;;;;5053689;28;20194;-77
2022/01/13 00:03:48;;;;;;;31.33;15.27;;;5.80;99.90;;;;;;5066198;28;20051;-76
2022/01/13 00:06:15;;;;;;;33.40;16.02;;;5.80;99.90;;;;;;5024071;28;20461;-77
2022/01/13 00:08:40;;;;;;;37.25;16.83;;;5.80;99.90;;;;;;5055991;28;20049;-77
2022/01/13 00:11:06;;;;;;;35.35;16.05;;;5.70;99.90;;;;;;5062735;28;20373;-77
2022/01/13 00:13:45;;;;;;;36.45;16.05;;;5.80;99.90;;;;;;5069195;28;20141;-77
2022/01/13 00:19:05;;;;;;;34.28;15.40;;;5.70;99.90;;;;;;5086551;28;20552;-77
2022/01/13 00:24:00;;;;;;;29.90;13.55;;;5.60;99.90;;;;;;5056024;28;20526;-77
2022/01/13 00:26:27;;;;;;;26.95;13.00;;;5.60;99.90;;;;;;5053371;28;20056;-77
2022/01/13 00:28:55;;;;;;;30.67;13.80;;;5.60;99.90;;;;;;5073070;28;20131;-77
2022/01/13 00:31:31;;;;;;;27.45;13.43;;;5.70;99.90;;;;;;5076616;28;20068;-77
2022/01/13 00:33:59;;;;;;;32.05;15.35;;;5.60;99.90;;;;;;5059328;28;20484;-77
2022/01/13 00:36:26;;;;;;;31.20;15.02;;;5.70;99.90;;;;;;5071410;28;20484;-78
2022/01/13 00:38:53;;;;;;;26.45;13.07;;;5.50;99.90;;;;;;5063858;28;20083;-77
2022/01/13 00:41:20;;;;;;;24.10;12.70;;;5.50;99.90;;;;;;5072607;28;20238;-76
2022/01/13 00:43:47;;;;;;;25.98;13.13;;;5.30;99.90;;;;;;5072761;28;20063;-77
2022/01/13 00:46:25;;;;;;;22.15;10.88;;;5.40;99.90;;;;;;5066267;28;20055;-77
2022/01/13 00:48:53;;;;;;;23.83;11.30;;;5.40;99.90;;;;;;5067552;28;20044;-77
2022/01/13 00:51:21;;;;;;;22.98;11.32;;;5.20;99.90;;;;;;5056136;28;20403;-77
2022/01/13 00:53:48;;;;;;;22.52;11.52;;;5.30;99.90;;;;;;5063974;28;20040;-78
2022/01/13 00:56:13;;;;;;;21.45;11.27;;;5.30;99.90;;;;;;5058044;28;20032;-77
2022/01/13 00:58:39;;;;;;;23.77;11.70;;;5.10;99.90;;;;;;5067085;28;20121;-78
2022/01/13 01:01:06;;;;;;;23.73;12.23;;;5.30;99.90;;;;;;5056505;28;20044;-77
2022/01/13 01:03:33;;;;;;;27.30;11.10;;;5.30;99.90;;;;;;5062913;28;20050;-77
2022/01/13 01:06:03;;;;;;;23.95;11.57;;;5.20;99.90;;;;;;5069992;28;20376;-77
2022/01/13 01:08:30;;;;;;;21.45;10.38;;;5.30;99.90;;;;;;5073875;28;20059;-77
2022/01/13 01:10:56;;;;;;;24.75;12.02;;;5.20;99.90;;;;;;5063828;28;20079;-77
2022/01/13 01:13:27;;;;;;;30.17;12.60;;;5.30;99.90;;;;;;5047943;28;20044;-77
2022/01/13 01:15:56;;;;;;;25.60;11.43;;;5.10;99.90;;;;;;5055681;28;20438;-77
2022/01/13 01:21:16;;;;;;;23.58;12.02;;;5.30;99.90;;;;;;5080048;28;20127;-77
2022/01/13 01:26:37;;;;;;;;;;;5.20;99.90;;;;;;5042377;28;20084;-77
2022/01/13 01:31:45;;;;;;;29.17;12.70;;;5.30;99.90;;;;;;5076513;28;20361;-77
2022/01/13 01:36:56;;;;;;;24.75;11.02;;;5.30;99.90;;;;;;5079846;28;20071;-77
2022/01/13 01:39:22;;;;;;;17.75;9.85;;;5.40;99.90;;;;;;5058028;28;20049;-77
2022/01/13 01:41:50;;;;;;;29.25;12.32;;;5.30;99.90;;;;;;5055177;28;20457;-77
2022/01/13 01:44:20;;;;;;;25.17;12.77;;;5.20;99.90;;;;;;5053242;28;20052;-77
2022/01/13 01:46:46;;;;;;;31.02;13.15;;;5.40;99.90;;;;;;5069857;28;20055;-77
2022/01/13 01:49:19;;;;;;;28.23;12.48;;;5.40;99.90;;;;;;5051013;28;20053;-77
2022/01/13 01:51:48;;;;;;;30.70;12.90;;;5.30;99.90;;;;;;5053205;28;20122;-78
2022/01/13 01:54:14;;;;;;;33.90;13.65;;;5.40;99.90;;;;;;5069284;28;20047;-76
2022/01/13 01:56:41;;;;;;;29.60;13.90;;;5.40;99.90;;;;;;5057902;28;20124;-76
2022/01/13 01:59:11;;;;;;;29.67;14.18;;;5.30;99.90;;;;;;5070490;28;20086;-76
2022/01/13 02:01:37;;;;;;;32.53;14.20;;;5.40;99.90;;;;;;5095547;28;20155;-75
2022/01/13 02:04:03;;;;;;;33.03;15.45;;;5.20;99.90;;;;;;5071106;28;20040;-77
2022/01/13 02:06:29;;;;;;;28.08;12.50;;;5.30;99.90;;;;;;5050208;28;20041;-76
2022/01/13 02:08:56;;;;;;;29.88;13.82;;;5.20;99.90;;;;;;5057365;28;20041;-77
2022/01/13 02:11:26;;;;;;;30.98;13.57;;;5.40;99.90;;;;;;5058542;28;20040;-77
2022/01/13 02:13:54;;;;;;;31.52;13.90;;;5.20;99.90;;;;;;5070542;28;20041;-77
2022/01/13 02:16:38;;;;;;;23.63;11.52;;;5.20;99.90;;;;;;5069170;28;20464;-76
2022/01/13 02:19:06;;;;;;;30.23;13.45;;;5.20;99.90;;;;;;5055079;28;20112;-76
2022/01/13 02:21:32;;;;;;;28.15;12.57;;;5.20;99.90;;;;;;5070316;28;20062;-77
2022/01/13 02:23:57;;;;;;;33.58;14.73;;;5.30;99.90;;;;;;5036068;28;20036;-77
2022/01/13 02:26:23;;;;;;;30.30;13.60;;;5.20;99.90;;;;;;5050321;28;20055;-76
2022/01/13 02:28:51;;;;;;;32.37;13.43;;;5.40;99.90;;;;;;5062075;28;20052;-77
2022/01/13 02:31:18;;;;;;;28.13;12.40;;;5.20;99.90;;;;;;5067462;28;20303;-77
2022/01/13 02:33:43;;;;;;;;;;;5.30;99.90;;;;;;5051487;28;20464;-77
2022/01/13 02:36:10;;;;;;;28.10;12.65;;;5.40;99.90;;;;;;5095754;28;19955;-76
2022/01/13 02:38:35;;;;;;;;;;;5.40;99.90;;;;;;5067098;28;20048;-76
2022/01/13 02:41:03;;;;;;;32.55;13.45;;;5.40;99.90;;;;;;5101125;28;19946;-76
2022/01/13 02:43:33;;;;;;;31.90;14.13;;;5.40;99.90;;;;;;5044910;28;20048;-77
2022/01/13 02:46:19;;;;;;;25.90;13.30;;;5.40;99.90;;;;;;5068150;28;20440;-77
2022/01/13 02:48:46;;;;;;;27.45;13.50;;;5.40;99.90;;;;;;5049949;28;20049;-77
2022/01/13 02:51:11;;;;;;;32.63;13.93;;;5.40;99.90;;;;;;5063887;28;20068;-76
2022/01/13 02:53:37;;;;;;;23.40;11.98;;;5.50;99.90;;;;;;5064544;28;20495;-76
2022/01/13 02:56:05;;;;;;;26.88;12.15;;;5.40;99.90;;;;;;5066880;28;20106;-78
2022/01/13 02:58:34;;;;;;;27.63;12.52;;;5.40;99.90;;;;;;5059633;28;20041;-77
2022/01/13 03:01:01;;;;;;;28.50;13.15;;;5.40;99.90;;;;;;5069656;28;20040;-77
2022/01/13 03:03:29;;;;;;;32.58;12.90;;;5.50;99.90;;;;;;5053520;28;20086;-77
2022/01/13 03:05:55;;;;;;;29.70;13.45;;;5.50;99.90;;;;;;5074416;28;20536;-77
2022/01/13 03:08:20;;;;;;;28.00;13.57;;;5.50;99.90;;;;;;5053028;28;20075;-71
2022/01/13 03:10:46;;;;;;;35.90;13.55;;;5.60;99.90;;;;;;5076767;28;20052;-71
2022/01/13 03:13:12;;;;;;;28.83;11.80;;;5.50;99.90;;;;;;5049063;28;20062;-71
2022/01/13 03:15:38;;;;;;;36.05;12.75;;;5.50;99.90;;;;;;5068700;28;20147;-71
2022/01/13 03:18:03;;;;;;;26.85;12.57;;;5.60;99.90;;;;;;5068536;28;20040;-71
2022/01/13 03:20:29;;;;;;;27.60;11.82;;;5.60;99.90;;;;;;5059259;28;20181;-71
2022/01/13 03:22:55;;;;;;;32.80;13.52;;;5.50;99.90;;;;;;5088631;28;20383;-71
2022/01/13 03:25:22;;;;;;;22.65;11.40;;;5.60;99.90;;;;;;5075203;28;20117;-71
2022/01/13 03:27:57;;;;;;;30.85;13.30;;;5.40;99.90;;;;;;5037975;28;20044;-72
2022/01/13 03:30:22;;;;;;;24.35;11.55;;;5.30;99.90;;;;;;5060088;28;20665;-71
2022/01/13 03:32:49;;;;;;;29.67;12.60;;;5.40;99.90;;;;;;5069974;28;20037;-72
2022/01/13 03:35:15;;;;;;;28.80;13.45;;;5.40;99.90;;;;;;5040006;28;20033;-71
2022/01/13 03:37:41;;;;;;;25.45;12.20;;;5.30;99.90;;;;;;5068032;28;20052;-72
2022/01/13 03:40:07;;;;;;;27.17;12.60;;;5.40;99.90;;;;;;5063335;28;20060;-71
2022/01/13 03:42:33;;;;;;;;;;;5.40;99.90;;;;;;5079089;28;20071;-71
2022/01/13 03:45:00;;;;;;;27.10;12.70;;;5.30;99.90;;;;;;5045889;28;20030;-71
2022/01/13 03:47:26;;;;;;;30.48;12.55;;;5.30;99.90;;;;;;5061917;28;20056;-71
2022/01/13 03:49:54;;;;;;;28.27;13.15;;;5.40;99.90;;;;;;5075304;28;20106;-71
2022/01/13 03:52:22;;;;;;;26.30;12.93;;;5.40;99.90;;;;;;5077044;28;20501;-71
2022/01/13 03:55:07;;;;;;;26.52;13.98;;;5.40;99.90;;;;;;5057637;28;20047;-71
2022/01/13 03:58:11;;;;;;;22.50;11.32;;;5.30;99.90;;;;;;5080359;28;20124;-71
2022/01/13 04:00:41;;;;;;;23.85;11.95;;;5.20;99.90;;;;;;5053036;28;20091;-72
2022/01/13 04:03:08;;;;;;;24.48;12.80;;;5.30;99.90;;;;;;5088870;28;20120;-71
2022/01/13 04:06:02;;;;;;;26.65;12.43;;;5.30;99.90;;;;;;5060621;28;20047;-71
2022/01/13 04:08:29;;;;;;;26.10;13.07;;;5.30;99.90;;;;;;5063210;28;20045;-71
2022/01/13 04:11:17;;;;;;;25.00;12.82;;;5.30;99.90;;;;;;5043286;28;20090;-71
2022/01/13 04:13:50;;;;;;;23.95;12.63;;;5.20;99.90;;;;;;5068248;28;20056;-71
2022/01/13 04:16:19;;;;;;;21.30;11.15;;;5.30;99.90;;;;;;5068143;28;20076;-72
2022/01/13 04:18:47;;;;;;;26.23;13.38;;;5.20;99.90;;;;;;5064320;28;20032;-72
2022/01/13 04:21:12;;;;;;;23.67;12.60;;;5.20;99.90;;;;;;5067097;28;20040;-72
2022/01/13 04:23:38;;;;;;;22.45;12.10;;;5.10;99.90;;;;;;5054923;28;20044;-72
2022/01/13 04:26:05;;;;;;;26.15;12.77;;;5.20;99.90;;;;;;5071963;28;20051;-71
2022/01/13 04:28:33;;;;;;;24.55;11.73;;;5.30;99.90;;;;;;5056108;28;20053;-72
2022/01/13 04:31:01;;;;;;;21.67;12.80;;;5.20;99.90;;;;;;5067506;28;20091;-72
2022/01/13 04:33:32;;;;;;;24.27;13.00;;;5.20;99.90;;;;;;5082186;28;20494;-72
2022/01/13 04:35:59;;;;;;;28.58;12.93;;;5.30;99.90;;;;;;5076668;28;20107;-72
2022/01/13 04:38:24;;;;;;;20.42;11.77;;;5.30;99.90;;;;;;5070255;28;20045;-72
2022/01/13 04:40:59;;;;;;;22.23;11.75;;;5.30;99.90;;;;;;5069900;28;20189;-72
2022/01/13 04:43:28;;;;;;;24.55;12.32;;;5.30;99.90;;;;;;5066218;28;20194;-72
2022/01/13 04:45:53;;;;;;;28.75;13.75;;;5.50;99.90;;;;;;5085506;28;20047;-72
2022/01/13 04:48:20;;;;;;;28.05;13.55;;;5.50;99.90;;;;;;5071177;28;20079;-71
2022/01/13 04:50:46;;;;;;;23.48;12.13;;;5.40;99.90;;;;;;5052718;28;20125;-72
2022/01/13 04:53:12;;;;;;;19.55;11.85;;;5.50;99.90;;;;;;5085477;28;20075;-72
2022/01/13 04:55:38;;;;;;;27.77;13.40;;;5.50;99.90;;;;;;5066096;28;20511;-72
2022/01/13 04:58:07;;;;;;;23.00;13.05;;;5.40;99.90;;;;;;5073460;28;20044;-72
2022/01/13 05:00:33;;;;;;;21.65;11.75;;;5.50;99.90;;;;;;5075983;28;20063;-72
2022/01/13 05:02:59;;;;;;;21.58;12.88;;;5.50;99.90;;;;;;5068812;28;20044;-72
2022/01/13 05:05:26;;;;;;;23.13;13.10;;;5.40;99.90;;;;;;5071676;28;20059;-72
2022/01/13 05:07:52;;;;;;;;;;;5.30;99.90;;;;;;5072667;28;20479;-72
2022/01/13 05:10:18;;;;;;;26.52;13.15;;;5.40;99.90;;;;;;5050482;28;20029;-77
2022/01/13 05:12:46;;;;;;;23.13;12.05;;;5.30;99.90;;;;;;5058685;28;20137;-78
2022/01/13 05:15:21;;;;;;;23.67;11.95;;;5.30;99.90;;;;;;5055723;28;20048;-77
2022/01/13 05:20:21;;;;;;;20.27;9.93;;;5.40;99.90;;;;;;5068444;28;20044;-77
2022/01/13 05:22:48;;;;;;;20.90;11.52;;;5.40;99.90;;;;;;5071967;28;20059;-77
2022/01/13 05:25:16;;;;;;;24.40;12.90;;;5.40;99.90;;;;;;5072041;28;20044;-78
2022/01/13 05:27:42;;;;;;;26.27;12.60;;;5.30;99.90;;;;;;5057161;28;20055;-77
2022/01/13 05:30:08;;;;;;;25.77;12.10;;;5.30;99.90;;;;;;5059990;28;20045;-78
2022/01/13 05:32:34;;;;;;;25.00;11.98;;;5.30;99.90;;;;;;5070215;28;20044;-77
2022/01/13 05:35:00;;;;;;;21.83;10.38;;;5.30;99.90;;;;;;5077543;28;20040;-77
2022/01/13 05:37:26;;;;;;;51.28;13.25;;;5.40;99.90;;;;;;5098627;28;20050;-78
2022/01/13 05:39:52;;;;;;;20.63;11.70;;;5.40;99.90;;;;;;5051169;28;20052;-78
2022/01/13 05:42:18;;;;;;;20.92;11.68;;;5.50;99.90;;;;;;5071287;28;20048;-77
2022/01/13 05:44:44;;;;;;;23.45;12.20;;;5.30;99.90;;;;;;5072055;28;20033;-78
2022/01/13 05:47:15;;;;;;;21.25;12.20;;;5.40;99.90;;;;;;5071191;28;20455;-78
2022/01/13 05:49:42;;;;;;;23.77;12.35;;;5.50;99.90;;;;;;5068779;28;20037;-78
2022/01/13 05:52:09;;;;;;;21.02;11.05;;;5.40;99.90;;;;;;5069514;28;20094;-71
2022/01/13 05:54:35;;;;;;;23.23;12.02;;;5.50;99.90;;;;;;5032810;28;20190;-72
2022/01/13 05:57:01;;;;;;;20.75;11.43;;;5.40;99.90;;;;;;5081571;28;20076;-71
2022/01/13 05:59:27;;;;;;;22.40;12.05;;;5.50;99.90;;;;;;5062568;28;20078;-71
2022/01/13 06:01:53;;;;;;;24.92;12.82;;;5.40;99.90;;;;;;5067085;28;20040;-71
2022/01/13 06:04:18;;;;;;;20.77;11.40;;;5.50;99.90;;;;;;5059928;28;20045;-71
2022/01/13 06:06:45;;;;;;;23.88;12.90;;;5.60;99.90;;;;;;5060356;28;20048;-71
2022/01/13 06:09:11;;;;;;;25.08;12.73;;;5.50;99.90;;;;;;5069156;28;20395;-71
2022/01/13 06:11:39;;;;;;;28.98;13.23;;;5.60;99.90;;;;;;5047355;28;20037;-71
2022/01/13 06:14:06;;;;;;;24.75;13.63;;;5.50;99.90;;;;;;5061557;28;20064;-71
2022/01/13 06:16:32;;;;;;;23.80;12.50;;;5.60;99.90;;;;;;5047208;28;20048;-71
2022/01/13 06:18:59;;;;;;;25.42;12.77;;;5.60;99.90;;;;;;5059292;28;20036;-72
2022/01/13 06:21:24;;;;;;;25.67;13.45;;;5.70;99.90;;;;;;5050867;28;20101;-70
2022/01/13 06:23:50;;;;;;;28.48;13.88;;;5.60;99.90;;;;;;5068818;28;20058;-70
2022/01/13 06:26:16;;;;;;;34.30;15.55;;;5.60;99.90;;;;;;5054169;28;20118;-70
2022/01/13 06:28:41;;;;;;;30.15;13.98;;;5.80;99.90;;;;;;5057897;28;20051;-70
2022/01/13 06:31:07;;;;;;;29.75;14.60;;;5.70;99.90;;;;;;5086439;28;20055;-70
2022/01/13 06:33:34;;;;;;;32.95;15.55;;;5.70;99.90;;;;;;5050154;28;20038;-71
2022/01/13 06:36:01;;;;;;;29.17;14.55;;;5.80;99.90;;;;;;5063071;28;20102;-70
2022/01/13 06:38:27;;;;;;;36.35;15.85;;;5.70;99.90;;;;;;5066664;28;20064;-69
2022/01/13 06:40:53;;;;;;;36.33;14.73;;;5.80;99.90;;;;;;5065210;28;20088;-70
2022/01/13 06:43:18;;;;;;;34.28;15.32;;;5.80;99.90;;;;;;5057241;28;20045;-71
2022/01/13 06:45:44;;;;;;;38.53;15.90;;;5.90;99.90;;;;;;5065775;28;20043;-72
2022/01/13 06:48:10;;;;;;;34.17;15.68;;;5.80;99.90;;;;;;5050470;28;20044;-71
2022/01/13 06:50:36;;;;;;;41.83;17.40;;;5.90;99.90;;;;;;5061470;28;20059;-72
2022/01/13 06:53:02;;;;;;;34.97;15.35;;;6.00;99.90;;;;;;5052250;28;20074;-72
2022/01/13 06:55:28;;;;;;;40.83;15.90;;;6.00;99.90;;;;;;5064694;28;20047;-71
2022/01/13 06:57:54;;;;;;;36.58;16.60;;;6.00;99.90;;;;;;5083942;28;20037;-71
2022/01/13 07:00:22;;;;;;;39.35;16.58;;;6.00;99.90;;;;;;5068730;28;20570;-71
2022/01/13 07:02:48;;;;;;;44.78;17.52;;;6.10;99.90;;;;;;5052445;28;20117;-71
2022/01/13 07:05:13;;;;;;;42.00;16.55;;;6.00;99.90;;;;;;5072191;28;20052;-71
2022/01/13 07:07:40;;;;;;;42.38;17.60;;;6.00;99.90;;;;;;5033927;28;20534;-71
2022/01/13 07:10:08;;;;;;;34.53;14.85;;;6.00;99.90;;;;;;5072207;28;20366;-72
2022/01/13 07:12:34;;;;;;;41.15;17.60;;;6.00;99.90;;;;;;5070710;28;20037;-71
2022/01/13 07:15:00;;;;;;;39.55;16.88;;;6.10;99.90;;;;;;5070596;28;20041;-72
2022/01/13 07:17:26;;;;;;;43.92;17.67;;;6.00;99.90;;;;;;5065267;28;20174;-72
2022/01/13 07:19:52;;;;;;;38.42;16.60;;;6.10;99.90;;;;;;5070955;28;20086;-74
2022/01/13 07:22:19;;;;;;;42.88;17.58;;;6.10;99.90;;;;;;5038622;28;20033;-79
2022/01/13 07:24:45;;;;;;;41.33;16.50;;;6.10;99.90;;;;;;5052535;28;20106;-78
2022/01/13 07:27:11;;;;;;;;;;;6.20;99.90;;;;;;5073224;28;20048;-77
2022/01/13 07:29:39;;;;;;;42.00;17.63;;;6.20;99.90;;;;;;5068581;28;19995;-78
2022/01/13 07:32:06;;;;;;;40.92;19.05;;;6.10;99.90;;;;;;5033247;28;20181;-75
2022/01/13 07:34:31;;;;;;;;;;;6.10;99.90;;;;;;5071769;28;20036;-75
2022/01/13 07:36:57;;;;;;;40.90;17.73;;;6.20;99.90;;;;;;5051126;28;19916;-76
2022/01/13 07:39:23;;;;;;;46.53;18.98;;;6.20;99.90;;;;;;5068537;28;20483;-76
2022/01/13 07:41:49;;;;;;;47.22;19.17;;;6.20;99.90;;;;;;5069882;28;20052;-76
2022/01/13 07:44:17;;;;;;;41.78;17.90;;;6.10;99.90;;;;;;5047967;28;20040;-73
2022/01/13 07:46:43;;;;;;;39.60;17.45;;;6.10;99.90;;;;;;5053257;28;20051;-73
2022/01/13 07:49:08;;;;;;;41.58;17.08;;;6.30;99.90;;;;;;5072168;28;20395;-73
2022/01/13 07:51:34;;;;;;;41.00;16.77;;;6.20;99.90;;;;;;5054535;28;20055;-77
2022/01/13 07:54:01;;;;;;;44.47;18.85;;;6.20;99.90;;;;;;5045778;28;20387;-74
2022/01/13 07:56:28;;;;;;;;;;;6.30;99.90;;;;;;5061316;28;20124;-74
2022/01/13 07:58:54;;;;;;;41.90;17.73;;;6.30;99.90;;;;;;5086664;28;19958;-74
2022/01/13 08:01:20;;;;;;;38.42;16.33;;;6.20;99.90;;;;;;5065302;28;20405;-75
2022/01/13 08:03:45;;;;;;;40.58;17.73;;;6.30;99.90;;;;;;5065329;28;20075;-75
2022/01/13 08:06:11;;;;;;;44.97;19.40;;;6.20;99.90;;;;;;5067350;28;20044;-75
2022/01/13 08:08:38;;;;;;;41.85;18.23;;;6.10;99.90;;;;;;5053843;28;20123;-75
2022/01/13 08:11:05;;;;;;;40.47;17.63;;;6.30;99.90;;;;;;5072976;28;20051;-75
2022/01/13 08:13:31;;;;;;;47.00;18.15;;;6.20;99.90;;;;;;5077258;28;20065;-83
2022/01/13 08:15:59;;;;;;;43.88;18.48;;;6.30;99.90;;;;;;5044620;28;20094;-83
2022/01/13 08:21:08;;;;;;;38.80;17.73;;;6.20;99.90;;;;;;5084602;28;20048;-83
2022/01/13 08:23:34;;;;;;;47.95;19.25;;;6.10;99.90;;;;;;5068085;28;20044;-82
2022/01/13 08:26:00;;;;;;;43.28;18.73;;;6.20;99.90;;;;;;5055153;28;20852;-81
2022/01/13 08:28:28;;;;;;;45.75;17.33;;;6.20;99.90;;;;;;5054606;28;20046;-79
2022/01/13 08:30:56;;;;;;;38.60;17.95;;;6.20;99.90;;;;;;5035632;28;20465;-78
2022/01/13 08:33:22;;;;;;;35.53;17.15;;;6.30;99.90;;;;;;5073544;28;20506;-80
2022/01/13 08:35:49;;;;;;;37.13;17.00;;;6.30;99.90;;;;;;5071993;28;20053;-80
2022/01/13 08:38:16;;;;;;;39.85;17.50;;;6.10;99.90;;;;;;5060623;28;20040;-80
2022/01/13 08:40:50;;;;;;;38.28;17.90;;;6.20;99.90;;;;;;5048349;28;20133;-80
2022/01/13 08:43:16;;;;;;;38.47;17.75;;;6.20;99.90;;;;;;5072718;28;20332;-81
2022/01/13 08:45:42;;;;;;;38.72;17.48;;;6.20;99.90;;;;;;5074647;28;20039;-80
2022/01/13 08:48:08;;;;;;;43.33;18.13;;;6.00;99.90;;;;;;5069999;28;20037;-80
2022/01/13 08:50:34;;;;;;;42.38;18.67;;;6.10;99.90;;;;;;5058669;28;20044;-79
2022/01/13 08:53:00;;;;;;;40.10;18.50;;;6.00;99.90;;;;;;5070026;28;20051;-80
2022/01/13 08:55:26;;;;;;;39.58;17.80;;;6.00;99.90;;;;;;5055215;28;20043;-80
2022/01/13 08:57:52;;;;;;;42.63;18.00;;;6.00;99.90;;;;;;5062063;28;20128;-80
2022/01/13 09:00:18;;;;;;;33.92;15.88;;;6.20;99.90;;;;;;5085043;28;20043;-81
2022/01/13 09:02:45;;;;;;;37.05;17.23;;;6.20;99.90;;;;;;5073944;28;20443;-80
2022/01/13 09:05:13;;;;;;;41.92;16.90;;;6.00;99.90;;;;;;5073396;28;20119;-80
2022/01/13 09:07:39;;;;;;;41.00;18.63;;;6.00;99.90;;;;;;5075029;28;20045;-79
2022/01/13 09:10:06;;;;;;;36.97;18.15;;;6.00;99.90;;;;;;5056165;28;20036;-80
2022/01/13 09:12:32;;;;;;;38.13;16.13;;;6.00;99.90;;;;;;5056464;28;20181;-80
2022/01/13 09:15:03;;;;;;;38.20;17.60;;;6.20;99.90;;;;;;5075253;28;20040;-80
2022/01/13 09:17:30;;;;;;;42.45;18.05;;;6.20;99.90;;;;;;5058988;28;20140;-80
2022/01/13 09:19:55;;;;;;;35.72;16.80;;;6.10;99.90;;;;;;5058926;28;20605;-80
2022/01/13 09:22:21;;;;;;;37.38;18.02;;;6.10;99.90;;;;;;5082760;28;20070;-79
2022/01/13 09:24:47;;;;;;;35.47;17.08;;;6.20;99.90;;;;;;5039805;28;20372;-79
2022/01/13 09:27:13;;;;;;;41.28;19.25;;;6.10;99.90;;;;;;5071765;28;20049;-79
2022/01/13 09:29:39;;;;;;;37.92;16.73;;;6.00;99.90;;;;;;5068150;28;20047;-78
2022/01/13 09:32:07;;;;;;;39.00;17.67;;;6.20;99.90;;;;;;5054197;28;20036;-79
2022/01/13 09:34:33;;;;;;;37.05;17.40;;;6.00;99.90;;;;;;5073534;28;20044;-79
2022/01/13 09:36:58;;;;;;;42.08;19.38;;;6.20;99.90;;;;;;5043098;28;20039;-79
2022/01/13 09:39:24;;;;;;;37.78;18.15;;;6.10;99.90;;;;;;5077031;28;20417;-80
2022/01/13 09:41:52;;;;;;;39.95;18.85;;;6.10;99.90;;;;;;5087375;28;20052;-80
2022/01/13 09:44:18;;;;;;;42.67;20.30;;;6.30;99.90;;;;;;5069443;28;20074;-79
2022/01/13 09:46:45;;;;;;;39.47;18.02;;;6.30;99.90;;;;;;5057476;28;20489;-80
2022/01/13 09:49:10;;;;;;;45.40;19.13;;;6.30;99.90;;;;;;5067963;28;20056;-79
2022/01/13 09:51:37;;;;;;;44.65;20.25;;;6.10;99.90;;;;;;5070734;28;20483;-80
2022/01/13 09:54:04;;;;;;;36.42;18.98;;;6.20;99.90;;;;;;5062865;28;20041;-74
2022/01/13 09:56:33;;;;;;;41.25;19.67;;;6.10;99.90;;;;;;5069674;28;20032;-74
2022/01/13 09:58:59;;;;;;;43.35;20.33;;;6.20;99.90;;;;;;5068037;28;20097;-74
2022/01/13 10:01:24;;;;;;;43.03;20.75;;;6.30;99.90;;;;;;5077614;28;20048;-74
2022/01/13 10:03:51;;;;;;;36.75;18.88;;;6.40;99.90;;;;;;5062693;28;20097;-74
2022/01/13 10:06:19;;;;;;;46.17;19.95;;;6.20;99.90;;;;;;5074904;28;20117;-74
2022/01/13 10:08:46;;;;;;;39.17;19.25;;;6.30;99.90;;;;;;5032885;28;20346;-74
2022/01/13 10:11:45;;;;;;;41.50;20.58;;;6.20;99.90;;;;;;5066208;28;20041;-74
2022/01/13 10:17:09;;;;;;;44.97;20.67;;;6.30;99.90;;;;;;5078363;28;20040;-74
2022/01/13 10:19:46;;;;;;;39.53;21.33;;;6.30;99.90;;;;;;5067649;28;20483;-73
2022/01/13 10:22:19;;;;;;;43.97;21.23;;;6.30;99.90;;;;;;5038464;28;20120;-73
2022/01/13 10:24:52;;;;;;;39.63;20.30;;;6.40;99.90;;;;;;5064698;28;20041;-77
2022/01/13 10:27:18;;;;;;;41.78;20.95;;;6.50;99.90;;;;;;5051831;28;20079;-75
2022/01/13 10:29:53;;;;;;;48.00;21.00;;;6.50;99.90;;;;;;5049167;28;20045;-75
2022/01/13 10:32:25;;;;;;;40.22;20.95;;;6.40;99.90;;;;;;5060843;28;20375;-75
2022/01/13 10:35:03;;;;;;;45.13;22.02;;;6.60;99.90;;;;;;5047838;28;20381;-75
2022/01/13 10:37:35;;;;;;;41.55;21.00;;;6.50;99.90;;;;;;5071057;28;20036;-75
2022/01/13 10:40:05;;;;;;;41.53;21.40;;;6.40;99.90;;;;;;5077653;28;20044;-75
2022/01/13 10:45:04;;;;;;;44.65;22.02;;;6.40;99.90;;;;;;5092969;28;20512;-75
2022/01/13 10:47:32;;;;;;;48.72;22.42;;;6.60;99.90;;;;;;5080360;28;20127;-75
2022/01/13 10:50:06;;;;;;;48.40;22.60;;;6.50;99.90;;;;;;5075543;28;20390;-75
2022/01/13 10:52:32;;;;;;;43.33;21.23;;;6.50;99.90;;;;;;5072306;28;20040;-75
2022/01/13 10:55:19;;;;;;;41.60;21.98;;;6.40;99.90;;;;;;5074454;28;20081;-75
2022/01/13 10:57:45;;;;;;;;;;;6.60;99.90;;;;;;5055799;28;21349;-75
2022/01/13 11:00:17;;;;;;;46.67;22.17;;;6.50;99.90;;;;;;5063074;28;20398;-75
2022/01/13 11:02:44;;;;;;;37.78;20.58;;;6.40;99.90;;;;;;5057061;28;20076;-75
2022/01/13 11:05:10;;;;;;;44.72;22.08;;;6.60;99.90;;;;;;5057267;28;20098;-75
2022/01/13 11:07:37;;;;;;;39.72;22.60;;;6.50;99.90;;;;;;5073502;28;20101;-74
2022/01/13 11:10:06;;;;;;;45.42;23.80;;;6.70;99.90;;;;;;5073554;28;20082;-75
2022/01/13 11:12:36;;;;;;;45.40;23.80;;;6.70;99.90;;;;;;5058773;28;20043;-82
2022/01/13 11:15:11;;;;;;;48.45;23.42;;;6.60;99.90;;;;;;5064539;28;20047;-82
2022/01/13 11:17:41;;;;;;;42.72;23.08;;;6.60;99.90;;;;;;5059453;28;20425;-79
2022/01/13 11:20:10;;;;;;;43.70;22.83;;;6.70;99.90;;;;;;5089563;28;20157;-82
2022/01/13 11:22:39;;;;;;;49.97;22.80;;;6.70;99.90;;;;;;5080824;28;20040;-82
2022/01/13 11:25:08;;;;;;;42.47;22.40;;;6.80;99.90;;;;;;5065572;28;20035;-82
2022/01/13 11:27:34;;;;;;;46.22;24.10;;;6.90;99.90;;;;;;5090847;28;20102;-82
2022/01/13 11:30:03;;;;;;;40.58;22.13;;;6.70;99.90;;;;;;5077270;28;20779;-82
2022/01/13 11:32:29;;;;;;;46.97;23.85;;;6.80;99.90;;;;;;5077772;28;20068;-82
2022/01/13 11:35:00;;;;;;;38.03;20.92;;;6.80;99.90;;;;;;5089668;28;20224;-82
2022/01/13 11:37:28;;;;;;;40.97;22.52;;;6.90;99.90;;;;;;5080460;28;20054;-82
2022/01/13 11:39:54;;;;;;;34.85;20.92;;;6.80;99.90;;;;;;5069920;28;20115;-82
2022/01/13 11:42:20;;;;;;;40.20;21.30;;;6.80;99.90;;;;;;5052018;28;20452;-82
2022/01/13 11:45:08;;;;;;;44.38;21.13;;;6.80;99.90;;;;;;5058858;28;20087;-82
2022/01/13 11:47:34;;;;;;;35.65;20.60;;;6.90;99.90;;;;;;5076173;28;20041;-82
2022/01/13 11:50:19;;;;;;;36.17;19.33;;;6.90;99.90;;;;;;5062236;28;20042;-82
2022/01/13 11:52:53;;;;;;;40.10;21.45;;;6.80;99.90;;;;;;5076121;28;20090;-79
2022/01/13 11:55:35;;;;;;;34.38;19.98;;;6.90;99.90;;;;;;5100649;28;20025;-81
2022/01/13 11:58:18;;;;;;;43.00;22.20;;;6.90;99.90;;;;;;5065508;28;20058;-80
2022/01/13 12:00:48;;;;;;;39.85;22.13;;;6.90;99.90;;;;;;5069158;28;20053;-82
2022/01/13 12:03:34;;;;;;;44.30;21.42;;;7.00;99.90;;;;;;5063215;28;20047;-78
2022/01/13 12:06:02;;;;;;;42.35;22.50;;;6.90;99.90;;;;;;5045614;28;20112;-72
2022/01/13 12:08:46;;;;;;;40.15;20.60;;;6.90;99.90;;;;;;5063799;28;20052;-73
2022/01/13 12:11:38;;;;;;;39.10;20.98;;;6.80;99.90;;;;;;5070530;28;20036;-73
2022/01/13 12:14:22;;;;;;;38.47;19.92;;;7.00;99.90;;;;;;5091226;28;20044;-73
2022/01/13 12:17:03;;;;;;;33.83;20.25;;;7.00;99.90;;;;;;5052604;28;20123;-73
2022/01/13 12:19:40;;;;;;;36.53;20.95;;;6.90;99.90;;;;;;5046828;28;20040;-73
2022/01/13 12:22:20;;;;;;;34.85;20.27;;;7.10;99.90;;;;;;5063345;28;20045;-73
2022/01/13 12:24:57;;;;;;;39.75;21.20;;;7.00;99.90;;;;;;5052400;28;20044;-73
2022/01/13 12:27:25;;;;;;;32.75;18.75;;;7.10;99.90;;;;;;5069334;28;20051;-73
2022/01/13 12:30:09;;;;;;;32.28;19.75;;;7.00;99.90;;;;;;5061148;28;20041;-73
2022/01/13 12:32:49;;;;;;;31.70;19.33;;;7.10;99.90;;;;;;5048761;28;20692;-73
2022/01/13 12:35:33;;;;;;;32.10;18.52;;;7.00;99.90;;;;;;5062086;28;20049;-73
2022/01/13 12:38:15;;;;;;;31.85;19.27;;;7.20;99.90;;;;;;5038254;28;20037;-73
2022/01/13 12:40:51;;;;;;;31.30;18.08;;;7.20;99.90;;;;;;5055885;28;20135;-73
2022/01/13 12:46:13;;;;;;;33.38;18.63;;;7.20;99.90;;;;;;5061577;28;20510;-73
2022/01/13 12:48:40;;;;;;;27.85;17.50;;;7.20;99.90;;;;;;5056504;28;20045;-73
2022/01/13 12:51:07;;;;;;;30.88;17.17;;;7.30;99.90;;;;;;5062558;28;20376;-73
2022/01/13 12:53:35;;;;;;;32.22;17.65;;;7.30;99.90;;;;;;5057392;28;20041;-73
2022/01/13 12:56:03;;;;;;;31.35;16.50;;;7.40;99.90;;;;;;5061846;28;20047;-73
2022/01/13 12:58:35;;;;;;;32.10;18.42;;;7.40;99.90;;;;;;5042038;28;20055;-73
2022/01/13 13:01:07;;;;;;;34.85;18.48;;;7.50;99.90;;;;;;5056942;28;20094;-73
2022/01/13 13:03:33;;;;;;;28.92;16.60;;;7.60;99.90;;;;;;5058186;28;20055;-74
2022/01/13 13:05:59;;;;;;;30.38;16.75;;;7.50;99.90;;;;;;5038730;28;20092;-73
2022/01/13 13:08:26;;;;;;;;;;;7.60;99.90;;;;;;5051976;28;20736;-73
2022/01/13 13:10:57;;;;;;;30.80;17.17;;;7.70;99.90;;;;;;5027566;28;19963;-72
2022/01/13 13:13:24;;;;;;;29.95;17.77;;;7.70;99.90;;;;;;5057986;28;20041;-72
2022/01/13 13:16:10;;;;;;;31.00;16.35;;;7.70;99.90;;;;;;5041978;28;20050;-73
2022/01/13 13:18:36;;;;;;;32.83;16.80;;;7.70;99.90;;;;;;5093459;28;20120;-72